Ruso, North Dakota
Current Conditions -  °F | °C
As of 11:54 AM on Thursday 29 Jan 2015 (Local Time) from KMOT Reporting Station
Light Snow Light Snow  
Wind Chill:   Ceiling: 1500
Heat Index: 18°   Visibility: 5mi
Dew Point: 11°   Wind: 21mph
Humidity: 74%   Direction: 290°WNW
Pressure: 30.5"   Gusts: NA
Location:  47.84°N, 100.93°W
Report Text: KMOT 291754Z 29018KT 5SM -SN OVC015 M08/M12 A3050 RMK AO2 SLP358 P0000 60000 T10781117 11044 21083 51013
Loading
Personal Weather Stations






























Interactive Weather Map New forecast layout! Learn more

10-Day Weather Forecast

Advertisements
Track Severe Weather on mobile